Time;durP1;ratioP1;P1;durP2;ratioP2;P2;SDS_P1;SDS_P2;PMS_P1;PMS_P2;Temp;Humidity;BMP_temperature;BMP_pressure;BME280_temperature;BME280_humidity;BME280_pressure;Samples;Min_cycle;Max_cycle;Signal;HPM_P1;HPM_P2
2023/10/22 00:01:17;;;;;;;6.00;3.72;;;;;;;20.24;70.54;98464.16;4402276;32;33956;-70
2023/10/22 00:03:45;;;;;;;8.18;5.28;;;;;;;20.26;70.15;98450.41;4402477;32;34869;-71
2023/10/22 00:06:13;;;;;;;10.20;5.15;;;;;;;20.24;70.21;98437.00;4399145;32;33441;-71
2023/10/22 00:08:40;;;;;;;9.00;4.57;;;;;;;20.04;70.73;98430.72;4405477;32;35453;-71
2023/10/22 00:11:08;;;;;;;11.75;4.85;;;;;;;19.75;71.90;98421.91;4402921;32;33690;-72
2023/10/22 00:13:35;;;;;;;12.68;6.12;;;;;;;19.67;72.20;98416.66;4401797;32;33869;-68
2023/10/22 00:16:03;;;;;;;12.10;4.07;;;;;;;19.52;72.88;98419.53;4401952;32;34678;-70
2023/10/22 00:18:31;;;;;;;13.25;5.43;;;;;;;19.53;72.88;98423.06;4403740;32;33866;-69
2023/10/22 00:20:59;;;;;;;12.37;5.20;;;;;;;19.53;72.93;98433.94;4404859;32;32545;-68
2023/10/22 00:23:26;;;;;;;11.68;4.47;;;;;;;19.57;72.65;98431.66;4407054;32;34001;-67
2023/10/22 00:25:54;;;;;;;8.18;4.22;;;;;;;19.80;71.56;98428.59;4403071;32;34391;-68
2023/10/22 00:28:21;;;;;;;10.80;5.00;;;;;;;19.86;71.12;98435.91;4406833;32;34494;-68
2023/10/22 00:30:49;;;;;;;10.43;5.00;;;;;;;19.98;70.60;98434.28;4405713;32;33947;-68
2023/10/22 00:33:17;;;;;;;11.30;4.80;;;;;;;20.01;70.45;98440.13;4406722;32;35193;-68
2023/10/22 00:35:54;;;;;;;11.30;4.05;;;;;;;20.02;70.35;98433.63;4404895;32;33441;-68
2023/10/22 00:38:23;;;;;;;8.43;3.92;;;;;;;20.08;70.03;98437.41;4406255;32;33901;-67
2023/10/22 00:40:51;;;;;;;5.90;3.03;;;;;;;20.04;70.10;98428.00;4407611;32;33996;-69
2023/10/22 00:43:18;;;;;;;7.72;2.80;;;;;;;20.00;70.03;98437.63;4406108;32;34955;-69
2023/10/22 00:45:46;;;;;;;7.18;3.28;;;;;;;19.96;70.22;98430.91;4405400;32;33344;-69
2023/10/22 00:48:16;;;;;;;8.40;3.00;;;;;;;19.96;70.19;98423.59;4391156;32;33285;-69
2023/10/22 00:50:44;;;;;;;6.78;3.25;;;;;;;20.02;69.87;98430.91;4379239;32;33645;-70
2023/10/22 00:53:13;;;;;;;8.85;3.60;;;;;;;20.14;69.39;98435.75;4392808;32;33852;-70
2023/10/22 00:55:42;;;;;;;14.02;3.97;;;;;;;20.21;69.12;98436.59;4404404;32;33708;-69
2023/10/22 00:58:09;;;;;;;11.55;4.93;;;;;;;20.26;68.82;98428.66;4400280;32;34511;-70
2023/10/22 01:00:38;;;;;;;8.30;3.75;;;;;;;20.22;68.81;98422.81;4406460;32;33604;-69
2023/10/22 01:03:05;;;;;;;8.60;3.35;;;;;;;20.15;68.89;98421.94;4404746;32;33741;-70
2023/10/22 01:05:39;;;;;;;10.70;3.70;;;;;;;20.23;68.76;98431.78;4406076;32;33598;-69
2023/10/22 01:08:08;;;;;;;7.50;3.30;;;;;;;20.27;68.66;98432.22;4405980;32;33684;-70
2023/10/22 01:10:36;;;;;;;12.07;3.70;;;;;;;20.31;68.43;98428.03;4397950;32;35809;-69
2023/10/22 01:13:04;;;;;;;7.03;3.50;;;;;;;20.34;68.21;98430.31;4405135;32;34989;-69
2023/10/22 01:15:31;;;;;;;9.00;4.10;;;;;;;20.30;68.25;98424.47;4406588;32;33242;-70
2023/10/22 01:17:59;;;;;;;10.40;3.60;;;;;;;20.31;68.34;98428.03;4407386;32;33722;-69
2023/10/22 01:20:27;;;;;;;8.43;3.37;;;;;;;20.27;68.42;98429.50;4406826;32;35202;-70
2023/10/22 01:22:54;;;;;;;13.43;3.78;;;;;;;20.17;68.75;98432.63;4406381;32;35203;-70
2023/10/22 01:25:22;;;;;;;10.32;3.92;;;;;;;20.19;68.68;98427.78;4406791;32;34488;-70
2023/10/22 01:27:50;;;;;;;6.25;2.37;;;;;;;20.25;68.52;98427.78;4406311;32;35309;-69
2023/10/22 01:30:17;;;;;;;10.45;3.75;;;;;;;20.22;68.51;98427.38;4405929;32;34972;-69
2023/10/22 01:32:46;;;;;;;7.97;4.07;;;;;;;20.20;68.69;98424.88;4405625;32;33988;-69
2023/10/22 01:35:13;;;;;;;5.97;3.55;;;;;;;20.13;68.96;98426.78;4404437;32;33275;-69
2023/10/22 01:37:41;;;;;;;8.10;2.67;;;;;;;20.22;68.52;98425.53;4406118;32;33434;-68
2023/10/22 01:40:09;;;;;;;11.07;3.95;;;;;;;20.30;68.31;98421.75;4405705;32;35446;-69
2023/10/22 01:42:37;;;;;;;12.63;3.22;;;;;;;20.28;68.38;98421.13;4392893;32;33890;-68
2023/10/22 01:45:06;;;;;;;8.00;3.97;;;;;;;20.29;68.41;98422.81;4406043;32;33416;-68
2023/10/22 01:47:33;;;;;;;6.85;3.78;;;;;;;20.28;68.36;98431.97;4404654;32;34619;-68
2023/10/22 01:50:04;;;;;;;10.43;3.95;;;;;;;20.35;68.10;98441.00;4404632;32;33895;-68
2023/10/22 01:52:32;;;;;;;4.93;2.83;;;;;;;20.35;68.06;98435.56;4405754;32;35107;-68
2023/10/22 01:54:59;;;;;;;5.25;3.10;;;;;;;20.38;67.94;98437.00;4405643;32;33392;-68
2023/10/22 01:57:27;;;;;;;7.47;2.42;;;;;;;20.40;67.86;98432.19;4401274;32;35174;-69
2023/10/22 01:59:55;;;;;;;8.75;3.45;;;;;;;20.38;67.96;98429.69;4404550;32;33497;-69
2023/10/22 02:02:23;;;;;;;8.43;3.75;;;;;;;20.33;68.09;98432.22;4406151;32;34859;-69
2023/10/22 02:04:51;;;;;;;10.73;3.58;;;;;;;20.31;68.17;98433.44;4404918;32;33305;-69
2023/10/22 02:07:18;;;;;;;9.25;4.50;;;;;;;20.33;68.22;98431.37;4406323;32;33635;-69
2023/10/22 02:09:46;;;;;;;8.05;4.87;;;;;;;20.35;68.07;98423.81;4405219;32;35181;-69
2023/10/22 02:12:14;;;;;;;12.65;5.85;;;;;;;20.30;68.16;98439.94;4405911;32;34282;-69
2023/10/22 02:14:42;;;;;;;8.35;5.03;;;;;;;20.27;68.36;98435.75;4387284;32;33307;-69
2023/10/22 02:17:10;;;;;;;13.93;6.93;;;;;;;20.15;68.78;98440.97;4405855;32;33612;-69
2023/10/22 02:19:38;;;;;;;5.90;3.90;;;;;;;19.38;71.64;98435.97;4405615;32;35125;-69
2023/10/22 02:22:05;;;;;;;12.13;3.92;;;;;;;19.99;69.59;98435.94;4406774;32;33849;-69
2023/10/22 02:24:33;;;;;;;15.98;4.32;;;;;;;20.11;68.92;98437.00;4404100;32;33657;-69
2023/10/22 02:27:01;;;;;;;6.87;3.25;;;;;;;20.12;69.00;98433.22;4405776;32;34864;-70
2023/10/22 02:29:29;;;;;;;9.13;3.67;;;;;;;20.16;68.79;98429.06;4405260;32;34975;-69
2023/10/22 02:31:56;;;;;;;7.07;3.42;;;;;;;20.18;68.65;98431.56;4404905;32;34061;-69
2023/10/22 02:34:25;;;;;;;10.38;3.55;;;;;;;20.17;68.75;98427.19;4405727;32;33486;-70
2023/10/22 02:36:52;;;;;;;7.35;3.33;;;;;;;20.19;68.75;98420.50;4405141;32;35086;-69
2023/10/22 02:39:21;;;;;;;6.68;4.07;;;;;;;20.25;68.58;98425.06;4405433;32;33958;-69
2023/10/22 02:41:48;;;;;;;7.65;3.42;;;;;;;20.30;68.18;98416.31;4403693;32;35413;-70
2023/10/22 02:44:16;;;;;;;10.60;3.22;;;;;;;20.31;68.23;98417.16;4404281;32;33131;-69
2023/10/22 02:46:43;;;;;;;7.78;3.10;;;;;;;20.34;68.15;98411.31;4405888;32;33739;-69
2023/10/22 02:49:11;;;;;;;7.72;3.83;;;;;;;20.36;68.03;98409.22;4404901;32;34170;-69
2023/10/22 02:51:39;;;;;;;9.27;4.22;;;;;;;20.36;68.06;98410.06;4404503;32;34126;-69
2023/10/22 02:54:06;;;;;;;10.13;4.43;;;;;;;20.30;68.31;98410.06;4404763;32;34598;-70
2023/10/22 02:56:34;;;;;;;13.48;2.92;;;;;;;20.38;67.93;98416.09;4405884;32;33551;-70
2023/10/22 02:59:02;;;;;;;6.45;3.15;;;;;;;20.39;67.74;98409.63;4404406;32;34856;-70
2023/10/22 03:01:30;;;;;;;9.38;3.80;;;;;;;20.22;68.50;98408.37;4403845;32;33790;-70
2023/10/22 03:03:58;;;;;;;9.43;3.20;;;;;;;20.36;67.99;98415.47;4395308;32;33849;-70
2023/10/22 03:06:26;;;;;;;12.32;5.03;;;;;;;20.23;68.34;98424.47;4406151;32;33938;-70
2023/10/22 03:08:54;;;;;;;7.25;3.67;;;;;;;20.28;68.33;98412.12;4404691;32;33763;-71
2023/10/22 03:11:21;;;;;;;9.68;4.35;;;;;;;20.30;68.15;98415.50;4403629;32;33560;-70
2023/10/22 03:13:50;;;;;;;9.70;4.80;;;;;;;20.16;68.35;98423.66;4404764;32;33618;-70
2023/10/22 03:16:18;;;;;;;8.40;4.35;;;;;;;20.32;67.95;98425.09;4404576;32;33902;-70
2023/10/22 03:18:47;;;;;;;8.32;4.12;;;;;;;20.33;67.92;98424.06;4405109;32;34077;-69
2023/10/22 03:21:16;;;;;;;9.68;4.20;;;;;;;20.22;68.41;98430.09;4404813;32;33865;-70
2023/10/22 03:23:46;;;;;;;13.30;4.60;;;;;;;20.29;68.24;98432.81;4405190;32;33588;-70
2023/10/22 03:26:18;;;;;;;10.98;5.47;;;;;;;20.23;68.53;98424.47;4400096;32;33605;-70
2023/10/22 03:28:47;;;;;;;12.63;6.05;;;;;;;20.13;68.83;98426.78;4388089;32;34903;-70
2023/10/22 03:31:15;;;;;;;11.00;5.43;;;;;;;19.98;69.78;98421.53;4405860;32;34901;-69
2023/10/22 03:33:43;;;;;;;15.73;7.00;;;;;;;20.20;69.00;98424.06;4405407;32;33659;-70
2023/10/22 03:36:14;;;;;;;16.33;8.70;;;;;;;20.22;68.88;98439.13;4404320;32;33715;-69
2023/10/22 03:38:42;;;;;;;12.90;5.68;;;;;;;19.69;71.10;98430.03;4403241;32;35039;-69
2023/10/22 03:41:09;;;;;;;12.00;6.57;;;;;;;19.84;70.93;98440.72;4405173;32;34883;-70
2023/10/22 03:43:37;;;;;;;12.23;5.57;;;;;;;19.53;72.06;98442.91;4402676;32;33444;-71
2023/10/22 03:46:05;;;;;;;7.85;4.65;;;;;;;19.72;71.64;98440.50;4403905;32;34643;-71
2023/10/22 03:48:32;;;;;;;11.68;5.68;;;;;;;19.58;72.00;98445.00;4404262;32;34157;-70
2023/10/22 03:51:00;;;;;;;10.07;4.87;;;;;;;19.66;71.94;98438.59;4404243;32;33950;-71
2023/10/22 03:53:28;;;;;;;9.57;5.20;;;;;;;19.50;72.89;98448.75;4404331;32;33316;-69
2023/10/22 03:55:56;;;;;;;15.00;5.72;;;;;;;18.90;76.31;98457.62;4406470;32;33918;-69
2023/10/22 03:58:25;;;;;;;11.82;4.80;;;;;;;19.06;75.68;98454.59;4404921;32;34402;-69
2023/10/22 04:00:54;;;;;;;10.70;5.28;;;;;;;19.45;73.35;98470.22;4395212;32;33975;-69
2023/10/22 04:03:22;;;;;;;9.93;6.50;;;;;;;19.44;73.24;98481.28;4405537;32;33391;-69
2023/10/22 04:05:55;;;;;;;13.00;5.10;;;;;;;19.71;72.41;98479.50;4407572;32;33606;-69
2023/10/22 04:08:24;;;;;;;7.50;4.10;;;;;;;19.46;73.29;98474.63;4393485;32;34857;-69
2023/10/22 04:10:52;;;;;;;8.60;4.75;;;;;;;19.69;72.24;98476.19;4406868;32;34133;-69
2023/10/22 04:13:19;;;;;;;5.85;3.58;;;;;;;19.84;71.29;98470.56;4406395;32;33416;-70
2023/10/22 04:15:48;;;;;;;8.88;3.12;;;;;;;19.89;71.01;98482.50;4405981;32;34403;-69
2023/10/22 04:18:16;;;;;;;7.45;3.42;;;;;;;19.94;70.65;98492.75;4404016;32;33982;-70
2023/10/22 04:20:44;;;;;;;5.18;2.90;;;;;;;19.91;70.81;98509.47;4406265;32;33697;-69
2023/10/22 04:23:12;;;;;;;8.35;3.60;;;;;;;19.83;70.82;98518.62;4406152;32;34704;-69
2023/10/22 04:25:42;;;;;;;10.18;2.45;;;;;;;19.50;72.12;98523.88;4407355;32;34013;-69
2023/10/22 04:28:11;;;;;;;2.47;1.73;;;;;;;19.40;71.19;98521.53;4407259;32;34017;-69
2023/10/22 04:30:40;;;;;;;6.75;2.05;;;;;;;19.39;69.64;98510.88;4391012;32;33922;-69
2023/10/22 04:33:08;;;;;;;4.00;1.37;;;;;;;19.33;69.71;98515.25;4406539;32;33358;-69
2023/10/22 04:35:36;;;;;;;6.22;2.08;;;;;;;19.44;68.83;98524.69;4405271;32;33699;-69
2023/10/22 04:38:03;;;;;;;2.80;1.23;;;;;;;19.29;68.51;98530.22;4405060;32;34747;-69
2023/10/22 04:40:35;;;;;;;2.75;0.95;;;;;;;19.09;68.74;98530.94;4406460;32;34328;-69
2023/10/22 04:43:02;;;;;;;1.52;0.65;;;;;;;19.23;68.41;98531.03;4404922;32;33502;-69
2023/10/22 04:45:30;;;;;;;1.55;0.95;;;;;;;19.09;68.57;98539.09;4405713;32;33423;-69
2023/10/22 04:47:58;;;;;;;2.75;1.40;;;;;;;19.22;67.96;98538.34;4404931;32;33968;-69
2023/10/22 04:50:25;;;;;;;4.35;1.50;;;;;;;19.29;67.64;98539.25;4406000;32;34129;-70
2023/10/22 04:52:53;;;;;;;1.48;0.75;;;;;;;19.31;67.48;98542.56;4407365;32;33544;-69
2023/10/22 04:55:21;;;;;;;5.65;1.62;;;;;;;19.37;67.23;98543.66;4405774;32;37233;-70
2023/10/22 04:57:48;;;;;;;6.85;0.90;;;;;;;19.39;67.19;98548.88;4398292;32;33899;-69
2023/10/22 05:00:17;;;;;;;2.97;1.25;;;;;;;19.46;66.83;98566.03;4401399;32;34071;-69
2023/10/22 05:02:44;;;;;;;1.95;0.98;;;;;;;19.49;66.59;98557.50;4401649;32;32600;-69
2023/10/22 05:05:12;;;;;;;1.48;0.70;;;;;;;19.47;66.63;98563.13;4402491;32;33537;-70
2023/10/22 05:07:40;;;;;;;2.45;1.20;;;;;;;19.43;66.84;98564.56;4405449;32;33795;-70
2023/10/22 05:10:08;;;;;;;5.05;1.40;;;;;;;19.49;66.70;98571.06;4404311;32;35549;-70
2023/10/22 05:12:36;;;;;;;1.55;0.98;;;;;;;19.44;67.02;98574.38;4406263;32;33576;-69
2023/10/22 05:15:04;;;;;;;6.50;2.03;;;;;;;19.51;67.09;98579.81;4403144;32;34515;-68
2023/10/22 05:17:31;;;;;;;2.60;1.08;;;;;;;19.50;67.30;98580.88;4399873;32;34056;-69
2023/10/22 05:19:59;;;;;;;3.90;2.22;;;;;;;19.42;67.97;98584.59;4404547;32;34258;-68
2023/10/22 05:22:27;;;;;;;2.92;1.58;;;;;;;19.26;69.34;98593.03;4406387;32;33267;-69
2023/10/22 05:24:54;;;;;;;3.78;1.48;;;;;;;18.82;71.92;98596.88;4405465;32;34149;-69
2023/10/22 05:27:26;;;;;;;3.87;1.60;;;;;;;19.03;71.51;98604.97;4405612;32;34049;-69
2023/10/22 05:29:54;;;;;;;3.70;1.92;;;;;;;19.34;70.38;98605.63;4406389;32;34949;-70
2023/10/22 05:32:21;;;;;;;3.62;1.50;;;;;;;18.60;74.60;98615.81;4404929;32;32144;-69
2023/10/22 05:34:49;;;;;;;12.65;2.50;;;;;;;18.90;73.49;98618.41;4400803;32;34696;-71
2023/10/22 05:37:18;;;;;;;4.12;2.17;;;;;;;18.75;74.77;98615.81;4403184;32;35019;-68
2023/10/22 05:39:46;;;;;;;4.37;1.98;;;;;;;18.53;75.80;98628.47;4403114;32;35227;-67
2023/10/22 05:42:13;;;;;;;5.45;1.77;;;;;;;18.31;77.46;98640.31;4403632;32;33318;-70
2023/10/22 05:44:41;;;;;;;2.50;1.52;;;;;;;18.51;77.00;98638.66;4403119;32;35087;-69
2023/10/22 05:47:09;;;;;;;8.07;2.65;;;;;;;18.28;78.23;98641.53;4405602;32;34075;-69
2023/10/22 05:49:37;;;;;;;5.37;2.40;;;;;;;17.64;82.33;98652.97;4405550;32;33941;-69
2023/10/22 05:52:04;;;;;;;7.15;2.83;;;;;;;17.99;81.29;98660.56;4395197;32;31937;-69
2023/10/22 05:54:32;;;;;;;3.75;1.80;;;;;;;17.69;83.17;98668.66;4404028;32;33400;-70
2023/10/22 05:57:00;;;;;;;4.32;1.50;;;;;;;17.41;85.06;98677.41;4404311;32;33808;-70
2023/10/22 05:59:28;;;;;;;2.85;1.85;;;;;;;17.19;86.88;98684.53;4403871;32;34093;-70
2023/10/22 06:01:55;;;;;;;9.05;2.10;;;;;;;17.42;86.60;98680.94;4404154;32;33681;-70
2023/10/22 06:04:23;;;;;;;4.07;1.95;;;;;;;17.22;87.44;98694.16;4404145;32;34700;-69
2023/10/22 06:06:50;;;;;;;5.37;2.12;;;;;;;17.27;88.13;98697.16;4406100;32;33818;-68
2023/10/22 06:09:18;;;;;;;6.93;2.80;;;;;;;17.05;89.65;98706.13;4389518;32;34150;-72
2023/10/22 06:11:46;;;;;;;3.50;1.80;;;;;;;17.31;87.93;98712.00;4403767;32;34643;-72
2023/10/22 06:14:14;;;;;;;5.25;2.45;;;;;;;17.22;88.56;98710.38;4405065;32;33757;-69
2023/10/22 06:16:44;;;;;;;5.35;2.17;;;;;;;16.78;91.99;98721.84;4398024;32;33760;-67
2023/10/22 06:19:13;;;;;;;7.20;2.15;;;;;;;16.88;91.61;98714.34;4400175;32;34054;-69
2023/10/22 06:21:40;;;;;;;3.72;1.92;;;;;;;17.22;88.93;98719.31;4385018;32;32772;-69
2023/10/22 06:24:08;;;;;;;5.95;2.10;;;;;;;17.45;87.87;98718.44;4402234;32;34739;-69
2023/10/22 06:26:36;;;;;;;6.70;1.95;;;;;;;17.46;87.22;98720.13;4404786;32;34771;-69
2023/10/22 06:29:03;;;;;;;3.60;2.35;;;;;;;17.53;85.80;98723.78;4401050;32;32122;-69
2023/10/22 06:31:31;;;;;;;4.57;1.83;;;;;;;17.24;87.98;98738.09;4405903;32;31758;-69
2023/10/22 06:34:02;;;;;;;5.28;2.25;;;;;;;16.78;91.93;98740.78;4399803;32;33553;-70
2023/10/22 06:36:30;;;;;;;2.85;1.45;;;;;;;16.82;92.24;98742.13;4403248;32;34028;-68
2023/10/22 06:38:57;;;;;;;2.90;1.80;;;;;;;17.02;90.99;98738.94;4404195;32;33822;-68
2023/10/22 06:41:25;;;;;;;2.80;1.30;;;;;;;17.27;88.67;98748.53;4400236;32;33343;-69
2023/10/22 06:43:53;;;;;;;5.32;1.33;;;;;;;17.81;84.69;98748.38;4395277;32;33716;-68
2023/10/22 06:46:21;;;;;;;9.80;2.62;;;;;;;17.42;86.44;98754.81;4406430;32;35332;-68
2023/10/22 06:48:49;;;;;;;7.75;3.37;;;;;;;17.25;88.34;98757.84;4405982;32;34124;-69
2023/10/22 06:51:17;;;;;;;4.15;2.05;;;;;;;17.39;87.75;98774.09;4403680;32;33354;-69
2023/10/22 06:53:49;;;;;;;4.18;2.35;;;;;;;17.33;87.08;98774.81;4403622;32;34147;-69
2023/10/22 06:56:16;;;;;;;11.02;2.80;;;;;;;17.87;84.27;98782.81;4406775;32;34028;-69
2023/10/22 06:58:45;;;;;;;5.62;2.47;;;;;;;18.14;82.20;98783.25;4401346;32;33620;-68
2023/10/22 07:01:14;;;;;;;5.43;2.53;;;;;;;18.42;80.38;98772.56;4389596;32;247453;-70
2023/10/22 07:03:44;;;;;;;12.37;2.47;;;;;;;18.71;78.23;98782.50;4392294;32;34572;-69
2023/10/22 07:06:13;;;;;;;4.05;1.98;;;;;;;18.70;77.13;98788.13;4392255;32;34318;-67
2023/10/22 07:08:41;;;;;;;6.18;2.33;;;;;;;18.52;77.64;98788.50;4394792;32;33855;-70
2023/10/22 07:11:09;;;;;;;5.05;2.62;;;;;;;18.62;76.89;98794.50;4397200;32;33636;-70
2023/10/22 07:13:37;;;;;;;3.97;2.03;;;;;;;18.76;75.21;98809.91;4395464;32;33845;-70
2023/10/22 07:16:05;;;;;;;4.93;2.55;;;;;;;18.34;75.47;98821.44;4395270;32;33835;-69
2023/10/22 07:18:33;;;;;;;4.53;1.77;;;;;;;18.68;73.40;98812.69;4395153;32;33782;-69
2023/10/22 07:21:01;;;;;;;4.07;2.37;;;;;;;18.23;74.15;98814.59;4383096;32;33557;-69
2023/10/22 07:23:31;;;;;;;5.57;2.00;;;;;;;18.41;73.97;98811.53;4396676;32;33732;-69
2023/10/22 07:25:59;;;;;;;6.18;2.35;;;;;;;18.54;71.48;98810.84;4394198;32;33551;-69
2023/10/22 07:28:27;;;;;;;5.45;3.05;;;;;;;18.57;71.91;98826.75;4396046;32;35535;-71
2023/10/22 07:30:55;;;;;;;6.22;2.50;;;;;;;18.47;70.94;98835.16;4393150;32;33334;-71
2023/10/22 07:33:24;;;;;;;2.60;1.45;;;;;;;18.73;69.31;98837.41;4393554;32;34739;-69
2023/10/22 07:35:54;;;;;;;3.65;1.58;;;;;;;18.29;69.69;98835.50;4394621;32;33742;-69
2023/10/22 07:38:22;;;;;;;2.75;1.55;;;;;;;18.35;68.01;98836.66;4350450;32;34763;-68
2023/10/22 07:40:55;;;;;;;6.60;3.03;;;;;;;18.33;68.40;98836.84;4362053;32;33157;-69
2023/10/22 07:43:26;;;;;;;5.55;2.20;;;;;;;18.45;68.10;98853.47;4361425;32;31875;-70
2023/10/22 07:45:58;;;;;;;4.82;1.92;;;;;;;18.28;67.72;98860.94;4364379;32;33673;-70
2023/10/22 07:48:26;;;;;;;3.80;1.50;;;;;;;18.48;66.50;98865.78;4362113;32;35121;-70
2023/10/22 07:50:54;;;;;;;3.42;1.92;;;;;;;18.31;66.21;98876.81;4362667;32;33814;-69
2023/10/22 07:53:21;;;;;;;3.15;1.92;;;;;;;18.23;66.89;98887.72;4361076;32;33729;-69
2023/10/22 07:55:49;;;;;;;3.58;1.87;;;;;;;17.97;67.42;98885.44;4360442;32;34258;-70
2023/10/22 07:58:17;;;;;;;2.85;1.73;;;;;;;18.19;65.58;98889.13;4360666;32;33807;-69
2023/10/22 08:00:45;;;;;;;3.53;1.83;;;;;;;17.91;67.21;98883.44;4362676;32;34393;-68
2023/10/22 08:03:13;;;;;;;3.12;1.62;;;;;;;18.36;65.11;98898.78;4361325;32;33401;-68
2023/10/22 08:05:40;;;;;;;4.32;1.60;;;;;;;18.39;65.46;98898.41;4361590;32;33547;-68
2023/10/22 08:08:08;;;;;;;4.93;1.80;;;;;;;18.35;65.54;98909.78;4362142;32;33487;-70
2023/10/22 08:10:36;;;;;;;4.70;1.70;;;;;;;18.16;66.23;98903.87;4362847;32;34384;-70
2023/10/22 08:13:03;;;;;;;3.22;1.67;;;;;;;18.34;65.78;98917.06;4363017;32;33232;-70
2023/10/22 08:15:31;;;;;;;4.43;1.92;;;;;;;18.44;66.23;98914.09;4373654;32;34965;-70
2023/10/22 08:17:59;;;;;;;3.12;1.77;;;;;;;18.45;66.81;98910.34;4395858;32;35409;-69
2023/10/22 08:20:27;;;;;;;2.90;1.65;;;;;;;18.66;65.33;98912.34;4395451;32;33704;-69
2023/10/22 08:22:55;;;;;;;2.55;1.42;;;;;;;18.73;65.61;98917.88;4393579;32;33506;-69
2023/10/22 08:25:23;;;;;;;5.12;2.20;;;;;;;18.85;64.88;98916.41;4394310;32;34273;-69
2023/10/22 08:27:50;;;;;;;4.43;2.05;;;;;;;19.20;63.69;98920.19;4393928;32;33812;-69
2023/10/22 08:30:19;;;;;;;4.78;2.08;;;;;;;18.82;64.71;98925.72;4394000;32;33281;-69
2023/10/22 08:32:47;;;;;;;3.08;1.45;;;;;;;19.03;64.27;98929.53;4393095;32;34690;-70
2023/10/22 08:35:15;;;;;;;4.03;2.17;;;;;;;19.17;64.09;98931.41;4394904;32;34342;-70
2023/10/22 08:37:42;;;;;;;1.77;1.17;;;;;;;19.04;65.76;98931.25;4394237;32;33923;-69
2023/10/22 08:40:12;;;;;;;3.00;1.75;;;;;;;19.14;65.57;98939.09;4395411;32;32878;-69
2023/10/22 08:42:40;;;;;;;2.85;1.85;;;;;;;19.46;65.09;98930.50;4378653;32;33368;-69
2023/10/22 08:45:08;;;;;;;2.40;1.33;;;;;;;19.32;65.34;98936.78;4379856;32;34338;-69
2023/10/22 08:47:36;;;;;;;2.90;1.55;;;;;;;19.29;65.08;98940.75;4377283;32;34258;-69
2023/10/22 08:50:05;;;;;;;5.05;1.95;;;;;;;19.57;64.12;98956.28;4379876;32;35284;-69
2023/10/22 08:52:33;;;;;;;2.08;1.20;;;;;;;19.61;64.18;98963.00;4367130;32;36026;-68
2023/10/22 08:55:01;;;;;;;3.47;1.67;;;;;;;19.76;63.60;98963.84;4380310;32;33966;-69
2023/10/22 08:57:29;;;;;;;4.87;2.60;;;;;;;19.71;63.73;98971.72;4379292;32;33754;-70
2023/10/22 08:59:57;;;;;;;4.65;2.20;;;;;;;19.77;63.76;98976.41;4369833;32;33814;-72
2023/10/22 09:02:28;;;;;;;7.35;1.87;;;;;;;19.75;63.60;98967.59;4380533;32;33676;-71
2023/10/22 09:04:55;;;;;;;4.03;1.58;;;;;;;19.06;64.49;98967.97;4380289;32;33608;-72
2023/10/22 09:07:51;;;;;;;1.67;0.80;;;;;;;18.79;64.58;98979.50;4384695;32;33815;-73
2023/10/22 09:10:24;;;;;;;5.55;1.08;;;;;;;18.78;63.07;98978.66;4380134;32;34643;-71
2023/10/22 09:12:53;;;;;;;7.30;1.58;;;;;;;18.90;62.07;98992.56;4380844;32;32497;-70
2023/10/22 09:15:21;;;;;;;4.82;1.33;;;;;;;18.62;61.99;98992.34;4380983;32;34237;-70
2023/10/22 09:17:59;;;;;;;2.85;0.93;;;;;;;19.01;61.03;98991.28;4383556;32;33600;-70
2023/10/22 09:20:28;;;;;;;2.05;1.08;;;;;;;18.69;62.59;99001.41;4386780;32;34370;-68
2023/10/22 09:23:20;;;;;;;2.85;1.20;;;;;;;18.82;61.53;99007.06;4387045;32;33549;-68
2023/10/22 09:25:49;;;;;;;3.75;1.33;;;;;;;18.65;61.76;99010.94;4380202;32;34003;-69
2023/10/22 09:28:27;;;;;;;2.60;1.23;;;;;;;18.69;61.55;99016.84;4380147;32;33651;-70
2023/10/22 09:31:03;;;;;;;1.55;1.15;;;;;;;17.77;63.01;99025.00;4378634;32;34670;-69
2023/10/22 09:33:38;;;;;;;2.22;1.15;;;;;;;18.08;61.76;99008.72;4380282;32;32623;-69
2023/10/22 09:36:07;;;;;;;0.80;0.70;;;;;;;18.10;61.27;99021.03;4387918;32;34663;-70
2023/10/22 09:38:46;;;;;;;0.82;0.73;;;;;;;18.25;61.95;99029.22;4381369;32;34872;-68
2023/10/22 09:41:23;;;;;;;2.53;0.90;;;;;;;18.42;60.54;99037.22;4398250;32;32206;-68
2023/10/22 09:44:01;;;;;;;1.17;0.80;;;;;;;17.74;61.72;99047.81;4395153;32;33839;-68
2023/10/22 09:46:31;;;;;;;1.30;0.93;;;;;;;17.99;61.61;99056.66;4396801;32;33579;-69
2023/10/22 09:49:01;;;;;;;4.85;1.00;;;;;;;17.93;61.12;99052.81;4396063;32;33876;-70
2023/10/22 09:51:30;;;;;;;1.90;0.95;;;;;;;18.36;60.24;99052.34;4394238;32;34003;-70
2023/10/22 09:54:02;;;;;;;1.25;0.68;;;;;;;18.09;60.73;99056.44;4397234;32;33213;-70
2023/10/22 09:56:32;;;;;;;0.50;0.50;;;;;;;18.13;62.26;99055.87;4381930;32;33946;-70
2023/10/22 09:59:04;;;;;;;0.85;0.45;;;;;;;18.48;60.61;99053.59;4395407;32;35025;-71
2023/10/22 10:01:32;;;;;;;1.75;1.00;;;;;;;18.09;62.15;99059.16;4394687;32;33366;-70
2023/10/22 10:04:02;;;;;;;0.93;0.68;;;;;;;18.32;60.89;99061.84;4377452;32;34042;-70
2023/10/22 10:06:30;;;;;;;2.92;1.12;;;;;;;18.36;60.98;99066.75;4376248;32;34912;-70
2023/10/22 10:08:59;;;;;;;0.98;0.70;;;;;;;18.31;61.38;99062.87;4376151;32;35164;-69
2023/10/22 10:11:27;;;;;;;2.10;0.95;;;;;;;18.36;62.09;99058.63;4372893;32;33499;-70
2023/10/22 10:13:54;;;;;;;1.00;0.88;;;;;;;18.37;61.88;99064.88;4372027;32;35076;-70
2023/10/22 10:16:25;;;;;;;1.35;0.60;;;;;;;18.48;61.54;99075.28;4373494;32;33673;-69
2023/10/22 10:19:04;;;;;;;1.10;0.70;;;;;;;18.26;63.13;99068.00;4376813;32;34485;-70
2023/10/22 10:21:34;;;;;;;1.30;0.85;;;;;;;18.67;62.42;99070.38;4374640;32;33973;-69
2023/10/22 10:24:17;;;;;;;0.68;0.65;;;;;;;18.86;59.22;99067.19;4374973;32;33317;-69
2023/10/22 10:26:46;;;;;;;1.48;0.75;;;;;;;18.73;61.50;99080.53;4381509;32;34013;-69
2023/10/22 10:29:27;;;;;;;0.85;0.57;;;;;;;18.53;60.60;99081.00;4378691;32;33645;-69
2023/10/22 10:32:15;;;;;;;4.25;0.77;;;;;;;18.76;59.34;99089.13;4369580;32;33367;-69
2023/10/22 10:34:48;;;;;;;1.02;0.60;;;;;;;18.63;59.82;99089.72;4383385;32;33571;-70
2023/10/22 10:37:17;;;;;;;2.45;1.15;;;;;;;18.34;60.72;99090.47;4397084;32;33767;-69
2023/10/22 10:39:46;;;;;;;1.12;0.65;;;;;;;19.05;58.76;99095.63;4394716;32;32849;-70
2023/10/22 10:42:29;;;;;;;1.37;0.73;;;;;;;18.54;59.85;99095.38;4395636;32;34471;-69
2023/10/22 10:44:57;;;;;;;1.20;1.00;;;;;;;17.65;62.89;99105.69;4395620;32;32977;-70
2023/10/22 10:47:25;;;;;;;1.17;0.50;;;;;;;18.10;60.80;99109.56;4394343;32;35300;-72
2023/10/22 10:50:02;;;;;;;1.10;0.65;;;;;;;18.26;59.42;99095.91;4394785;32;33903;-69
2023/10/22 10:52:52;;;;;;;0.55;0.52;;;;;;;18.34;59.78;99101.28;4392631;32;34359;-69
2023/10/22 10:55:19;;;;;;;0.62;0.47;;;;;;;17.48;62.06;99109.50;4394333;32;33593;-69
2023/10/22 10:57:49;;;;;;;0.57;0.47;;;;;;;17.59;63.57;99101.00;4393538;32;34252;-69
2023/10/22 11:00:28;;;;;;;2.62;1.37;;;;;;;18.18;60.90;99097.84;4394171;32;33775;-69
2023/10/22 11:03:00;;;;;;;1.05;0.68;;;;;;;17.92;61.23;99117.97;4388877;32;33761;-68
2023/10/22 11:05:42;;;;;;;1.95;0.55;;;;;;;18.27;60.61;99115.75;4396021;32;31993;-69
2023/10/22 11:08:22;;;;;;;0.70;0.52;;;;;;;18.18;60.38;99114.94;4398574;32;35515;-69
2023/10/22 11:10:49;;;;;;;0.85;0.50;;;;;;;18.05;61.42;99125.53;4398553;32;33864;-69
2023/10/22 11:13:25;;;;;;;0.60;0.50;;;;;;;18.26;60.94;99119.47;4396968;32;34163;-69
2023/10/22 11:16:02;;;;;;;1.02;0.55;;;;;;;18.19;61.75;99116.63;4384267;32;35003;-69
2023/10/22 11:18:30;;;;;;;1.48;0.80;;;;;;;18.27;60.53;99111.16;4396843;32;34788;-69
2023/10/22 11:20:58;;;;;;;2.70;1.10;;;;;;;18.39;60.68;99112.44;4397212;32;34285;-69
2023/10/22 11:23:26;;;;;;;11.60;1.25;;;;;;;18.74;59.63;99110.16;4396224;32;33391;-69
2023/10/22 11:25:54;;;;;;;0.75;0.40;;;;;;;18.58;60.00;99102.97;4377284;32;33689;-69
2023/10/22 11:28:23;;;;;;;1.40;0.57;;;;;;;18.74;60.44;99099.31;4334570;32;34901;-69
2023/10/22 11:30:51;;;;;;;7.68;0.98;;;;;;;18.04;61.59;99111.16;4335536;32;34056;-69
2023/10/22 11:33:29;;;;;;;1.10;0.62;;;;;;;18.34;60.45;99098.59;4334693;32;34714;-69
2023/10/22 11:35:57;;;;;;;6.85;0.88;;;;;;;18.43;60.25;99112.91;4336016;32;34097;-69
2023/10/22 11:38:26;;;;;;;0.55;0.47;;;;;;;18.67;59.98;99111.88;4332130;32;33511;-69
2023/10/22 11:40:55;;;;;;;1.02;0.57;;;;;;;18.53;59.70;99108.09;4333936;32;33789;-70